Time;durP1;ratioP1;P1;durP2;ratioP2;P2;SDS_P1;SDS_P2;PMS_P1;PMS_P2;Temp;Humidity;BMP_temperature;BMP_pressure;BME280_temperature;BME280_humidity;BME280_pressure;Samples;Min_cycle;Max_cycle;Signal;HPM_P1;HPM_P2
2022/11/14 00:00:00;;;;;;;29.97;21.80;;;;;;;8.46;96.05;100720.56;5093647;28;20284;-65
2022/11/14 00:02:26;;;;;;;31.73;22.80;;;;;;;8.49;95.51;100716.78;5092977;28;20282;-65
2022/11/14 00:04:53;;;;;;;36.20;23.50;;;;;;;8.49;95.65;100711.50;5093188;28;20195;-65
2022/11/14 00:07:20;;;;;;;36.77;23.33;;;;;;;8.40;94.83;100717.69;5092560;28;20190;-65
2022/11/14 00:09:48;;;;;;;33.93;23.57;;;;;;;8.34;94.94;100713.00;5092558;28;20191;-65
2022/11/14 00:12:14;;;;;;;35.07;23.13;;;;;;;8.31;94.66;100708.84;5094342;28;20187;-65
2022/11/14 00:14:41;;;;;;;34.37;22.67;;;;;;;8.23;95.28;100689.41;5072334;28;20223;-65
2022/11/14 00:17:08;;;;;;;32.90;22.93;;;;;;;8.17;94.80;100705.88;5072663;28;20232;-65
2022/11/14 00:19:35;;;;;;;35.47;22.40;;;;;;;8.10;96.45;100704.81;5072191;28;20253;-65
2022/11/14 00:22:01;;;;;;;35.90;25.07;;;;;;;8.08;96.34;100697.00;5072135;28;20653;-65
2022/11/14 00:24:28;;;;;;;33.63;23.07;;;;;;;8.04;96.49;100695.66;5072203;28;20760;-65
2022/11/14 00:26:56;;;;;;;33.17;23.10;;;;;;;8.04;97.04;100700.13;5072680;28;20192;-65
2022/11/14 00:29:23;;;;;;;36.87;22.93;;;;;;;7.99;96.46;100689.97;5077396;28;20259;-65
2022/11/14 00:31:49;;;;;;;33.83;23.43;;;;;;;7.87;96.87;100703.56;5092150;28;20724;-65
2022/11/14 00:34:16;;;;;;;28.57;21.40;;;;;;;7.78;97.66;100693.88;5092593;28;20246;-65
2022/11/14 00:36:43;;;;;;;31.33;23.10;;;;;;;7.71;97.35;100687.50;5092199;28;20611;-65
2022/11/14 00:39:12;;;;;;;32.70;22.77;;;;;;;7.72;97.92;100689.19;5092508;28;20195;-65
2022/11/14 00:41:39;;;;;;;31.63;22.37;;;;;;;7.72;97.63;100691.84;5092386;28;20625;-65
2022/11/14 00:44:07;;;;;;;32.67;22.33;;;;;;;7.71;97.18;100682.22;5092413;28;20250;-65
2022/11/14 00:46:34;;;;;;;31.03;21.97;;;;;;;7.71;97.53;100684.88;5091527;28;20634;-65
2022/11/14 00:49:01;;;;;;;39.63;23.27;;;;;;;7.57;96.71;100680.09;5092894;28;20220;-65
2022/11/14 00:51:27;;;;;;;32.37;22.53;;;;;;;7.43;96.35;100677.97;5091836;28;20195;-65
2022/11/14 00:53:54;;;;;;;34.67;22.90;;;;;;;7.29;96.99;100667.84;5092286;28;20248;-65
2022/11/14 00:56:21;;;;;;;29.37;21.77;;;;;;;7.24;97.88;100672.75;5092231;28;20191;-65
2022/11/14 00:58:47;;;;;;;36.67;22.07;;;;;;;7.26;99.27;100660.25;5091956;28;20206;-65
2022/11/14 01:01:16;;;;;;;29.17;21.50;;;;;;;7.22;97.98;100664.16;5092129;28;20196;-65
2022/11/14 01:03:42;;;;;;;31.63;20.73;;;;;;;7.18;98.46;100660.16;5092268;28;20252;-65
2022/11/14 01:06:13;;;;;;;30.20;21.10;;;;;;;7.16;98.68;100654.16;5092099;28;20641;-65
2022/11/14 01:08:40;;;;;;;33.97;21.67;;;;;;;7.21;99.18;100657.19;5093548;28;20208;-65
2022/11/14 01:11:10;;;;;;;29.47;21.33;;;;;;;7.25;98.85;100655.91;5092503;28;20194;-64
2022/11/14 01:13:37;;;;;;;33.17;22.90;;;;;;;7.29;98.59;100654.66;5080862;28;20270;-65
2022/11/14 01:16:05;;;;;;;36.47;24.70;;;;;;;7.31;98.02;100660.63;5071997;28;20199;-65
2022/11/14 01:18:33;;;;;;;34.20;22.30;;;;;;;7.36;97.80;100656.56;5072720;28;20289;-65
2022/11/14 01:21:00;;;;;;;33.50;22.97;;;;;;;7.41;97.41;100653.47;5071820;28;20195;-65
2022/11/14 01:23:27;;;;;;;31.20;21.70;;;;;;;7.40;97.02;100651.81;5071853;28;20249;-65
2022/11/14 01:25:53;;;;;;;28.07;21.20;;;;;;;7.43;96.69;100657.63;5071396;28;20658;-65
2022/11/14 01:28:20;;;;;;;26.10;20.00;;;;;;;7.41;95.84;100654.31;5071765;28;20718;-65
2022/11/14 01:30:47;;;;;;;27.43;19.07;;;;;;;7.40;94.71;100646.53;5088562;28;20245;-65
2022/11/14 01:33:13;;;;;;;22.17;17.33;;;;;;;7.33;96.56;100629.59;5091667;28;20245;-65
2022/11/14 01:35:42;;;;;;;21.63;18.27;;;;;;;7.34;96.34;100639.16;5091518;28;20654;-65
2022/11/14 01:38:13;;;;;;;23.57;18.37;;;;;;;7.38;96.02;100645.81;5074071;28;20199;-65
2022/11/14 01:40:42;;;;;;;20.80;17.30;;;;;;;7.39;96.00;100639.59;5091831;28;20183;-65
2022/11/14 01:43:30;;;;;;;25.00;17.60;;;;;;;7.34;95.34;100647.09;5092022;28;20735;-65
2022/11/14 01:46:00;;;;;;;23.77;17.63;;;;;;;7.22;95.25;100638.53;5091702;28;20565;-65
2022/11/14 01:48:36;;;;;;;25.37;18.60;;;;;;;7.24;95.74;100641.06;5092603;28;20286;-65
2022/11/14 01:51:15;;;;;;;23.00;17.47;;;;;;;7.18;96.40;100636.38;5092363;28;20237;-65
2022/11/14 01:53:42;;;;;;;27.00;17.70;;;;;;;7.15;97.01;100631.38;5071316;28;20238;-65
2022/11/14 01:56:11;;;;;;;27.83;17.93;;;;;;;7.15;97.70;100636.66;5071091;28;20619;-65
2022/11/14 01:58:42;;;;;;;22.90;17.87;;;;;;;7.18;98.00;100631.06;5074415;28;20208;-65
2022/11/14 02:01:08;;;;;;;26.23;17.87;;;;;;;7.22;97.59;100637.72;5075488;28;20277;-65
2022/11/14 02:03:40;;;;;;;29.53;18.70;;;;;;;7.22;96.87;100638.53;5075389;28;20257;-65
2022/11/14 02:06:12;;;;;;;26.73;19.43;;;;;;;7.23;95.93;100634.91;5075521;28;20191;-65
2022/11/14 02:08:40;;;;;;;24.10;18.43;;;;;;;7.19;95.36;100638.84;5074614;28;20208;-65
2022/11/14 02:11:10;;;;;;;29.47;18.37;;;;;;;7.19;95.40;100628.25;5074801;28;20188;-65
2022/11/14 02:13:37;;;;;;;23.83;18.37;;;;;;;7.16;95.96;100627.75;5085574;28;20240;-65
2022/11/14 02:16:04;;;;;;;22.97;17.73;;;;;;;7.16;96.19;100627.75;5095087;28;20188;-65
2022/11/14 02:18:31;;;;;;;25.60;18.90;;;;;;;7.19;96.92;100627.44;5096046;28;20226;-65
2022/11/14 02:20:59;;;;;;;21.67;16.53;;;;;;;7.19;95.51;100622.97;5094718;28;20197;-64
2022/11/14 02:23:26;;;;;;;26.37;17.93;;;;;;;7.21;95.89;100620.19;5094694;28;20195;-65
2022/11/14 02:25:54;;;;;;;29.30;18.20;;;;;;;7.20;95.92;100618.53;5095479;28;20643;-65
2022/11/14 02:28:21;;;;;;;25.20;17.40;;;;;;;7.14;96.35;100616.50;5094422;28;20215;-65
2022/11/14 02:30:48;;;;;;;23.33;17.63;;;;;;;7.10;96.81;100620.41;5077836;28;20192;-65
2022/11/14 02:33:14;;;;;;;25.63;17.43;;;;;;;7.11;97.13;100624.72;5074565;28;20199;-65
2022/11/14 02:35:41;;;;;;;29.50;19.20;;;;;;;7.10;95.87;100617.78;5074226;28;20229;-65
2022/11/14 02:38:09;;;;;;;23.47;17.83;;;;;;;7.06;95.04;100616.41;5074515;28;20194;-64
2022/11/14 02:40:36;;;;;;;26.33;18.50;;;;;;;7.05;94.50;100609.44;5074143;28;20663;-65
2022/11/14 02:43:03;;;;;;;22.30;17.90;;;;;;;7.07;95.07;100602.19;5074798;28;20196;-65
2022/11/14 02:45:30;;;;;;;25.70;18.07;;;;;;;7.08;94.40;100606.50;5074930;28;20249;-65
2022/11/14 02:47:56;;;;;;;26.37;18.33;;;;;;;7.06;95.06;100611.13;5074103;28;20248;-65
2022/11/14 02:50:23;;;;;;;24.60;17.93;;;;;;;7.06;95.09;100611.94;5074270;28;20196;-65
2022/11/14 02:52:50;;;;;;;23.83;17.53;;;;;;;7.03;94.97;100611.41;5087470;28;20250;-65
2022/11/14 02:55:18;;;;;;;24.57;17.97;;;;;;;6.94;94.85;100613.09;5094398;28;20208;-65
2022/11/14 02:57:45;;;;;;;27.30;18.73;;;;;;;6.84;94.99;100614.09;5094200;28;20255;-65
2022/11/14 03:00:13;;;;;;;24.07;18.13;;;;;;;6.79;96.45;100613.72;5094179;28;20199;-65
2022/11/14 03:02:40;;;;;;;23.20;18.60;;;;;;;6.72;97.42;100612.63;5094156;28;20199;-65
2022/11/14 03:05:07;;;;;;;26.37;18.63;;;;;;;6.74;97.78;100614.13;5093896;28;20727;-65
2022/11/14 03:07:34;;;;;;;27.40;17.97;;;;;;;6.71;97.10;100608.31;5093976;28;20191;-64
2022/11/14 03:10:00;;;;;;;22.53;17.17;;;;;;;6.70;96.85;100625.16;5093201;28;20310;-64
2022/11/14 03:12:28;;;;;;;23.63;18.00;;;;;;;6.60;97.20;100619.03;5093893;28;20231;-65
2022/11/14 03:14:55;;;;;;;23.70;18.23;;;;;;;6.54;97.50;100619.63;5094243;28;20194;-65
2022/11/14 03:17:23;;;;;;;25.23;17.63;;;;;;;6.57;97.78;100616.72;5093750;28;20227;-65
2022/11/14 03:19:50;;;;;;;22.77;17.63;;;;;;;6.61;98.05;100615.47;5093541;28;20381;-65
2022/11/14 03:22:16;;;;;;;25.97;18.57;;;;;;;6.66;97.84;100619.31;5093806;28;20191;-65
2022/11/14 03:24:43;;;;;;;25.30;18.80;;;;;;;6.71;96.86;100621.53;5093446;28;20225;-65
2022/11/14 03:27:10;;;;;;;22.37;17.37;;;;;;;6.74;97.28;100627.34;5093358;28;20643;-65
2022/11/14 03:29:38;;;;;;;27.57;18.50;;;;;;;6.73;97.25;100619.59;5086986;28;20625;-65
2022/11/14 03:32:05;;;;;;;22.40;17.07;;;;;;;6.77;97.35;100619.13;5073265;28;20200;-65
2022/11/14 03:34:32;;;;;;;27.23;18.43;;;;;;;6.82;97.21;100618.72;5073061;28;20658;-65
2022/11/14 03:36:59;;;;;;;23.93;17.53;;;;;;;6.80;96.21;100620.66;5073249;28;20187;-65
2022/11/14 03:39:26;;;;;;;24.63;17.30;;;;;;;6.79;96.14;100619.00;5072970;28;20676;-65
2022/11/14 03:41:53;;;;;;;25.10;17.80;;;;;;;6.84;96.51;100617.59;5073685;28;20191;-65
2022/11/14 03:44:19;;;;;;;28.30;17.97;;;;;;;6.85;96.11;100615.75;5073394;28;20190;-65
2022/11/14 03:46:47;;;;;;;24.10;18.87;;;;;;;6.86;95.42;100620.91;5073396;28;20192;-65
2022/11/14 03:49:14;;;;;;;25.60;18.43;;;;;;;6.88;95.78;100611.03;5072939;28;20272;-65
2022/11/14 03:51:41;;;;;;;24.60;17.60;;;;;;;6.92;95.21;100619.50;5076409;28;20191;-65
2022/11/14 03:54:07;;;;;;;23.23;17.93;;;;;;;6.91;95.30;100609.91;5092832;28;20724;-65
2022/11/14 03:56:34;;;;;;;24.00;18.17;;;;;;;6.95;95.29;100614.78;5092876;28;20195;-65
2022/11/14 03:59:01;;;;;;;26.40;17.97;;;;;;;6.97;95.38;100617.25;5093084;28;20231;-65
2022/11/14 04:01:28;;;;;;;23.20;17.20;;;;;;;6.93;95.17;100626.44;5092732;28;20251;-65
2022/11/14 04:03:56;;;;;;;23.20;17.07;;;;;;;6.91;95.01;100623.97;5093027;28;20248;-64
2022/11/14 04:06:23;;;;;;;27.40;17.07;;;;;;;6.91;95.22;100620.47;5093808;28;20244;-65
2022/11/14 04:08:50;;;;;;;23.80;17.80;;;;;;;6.94;95.32;100617.56;5092504;28;20272;-65
2022/11/14 04:11:17;;;;;;;26.87;17.50;;;;;;;6.89;95.21;100622.41;5093038;28;20234;-65
2022/11/14 04:13:44;;;;;;;26.20;19.50;;;;;;;6.90;95.13;100621.47;5080974;28;20245;-65
2022/11/14 04:16:10;;;;;;;23.13;17.07;;;;;;;6.90;94.44;100619.63;5072847;28;20191;-65
2022/11/14 04:18:37;;;;;;;25.93;17.87;;;;;;;6.89;94.63;100619.78;5072994;28;20291;-65
2022/11/14 04:21:05;;;;;;;27.93;18.67;;;;;;;6.79;94.09;100608.44;5072518;28;20194;-65
2022/11/14 04:23:32;;;;;;;25.73;19.00;;;;;;;6.82;94.24;100616.06;5072110;28;20663;-65
2022/11/14 04:25:59;;;;;;;26.67;17.13;;;;;;;6.84;94.09;100614.09;5072467;28;20192;-65
2022/11/14 04:28:25;;;;;;;23.43;16.90;;;;;;;6.80;94.61;100620.66;5071926;28;20249;-65
2022/11/14 04:30:53;;;;;;;25.30;17.87;;;;;;;6.82;94.71;100619.53;5089689;28;20192;-64
2022/11/14 04:33:19;;;;;;;24.77;18.20;;;;;;;6.81;94.76;100617.06;5092117;28;20654;-65
2022/11/14 04:35:46;;;;;;;26.87;17.57;;;;;;;6.81;94.59;100609.13;5092473;28;20245;-65
2022/11/14 04:38:14;;;;;;;24.73;16.80;;;;;;;6.77;94.17;100618.31;5092077;28;20192;-65
2022/11/14 04:40:41;;;;;;;24.27;19.13;;;;;;;6.67;94.31;100614.88;5093326;28;20195;-65
2022/11/14 04:43:07;;;;;;;33.63;20.90;;;;;;;6.63;94.66;100619.63;5088093;28;20191;-66
2022/11/14 04:45:34;;;;;;;38.07;22.37;;;;;;;6.63;94.69;100618.75;5071194;28;20231;-65
2022/11/14 04:48:01;;;;;;;31.60;20.03;;;;;;;6.54;95.46;100619.63;5071615;28;20715;-65
2022/11/14 04:50:27;;;;;;;32.37;20.17;;;;;;;6.42;95.94;100620.78;5072969;28;20298;-65
2022/11/14 04:52:54;;;;;;;38.63;22.17;;;;;;;6.36;96.07;100619.53;5086059;28;20247;-65
2022/11/14 04:55:22;;;;;;;36.47;23.23;;;;;;;6.25;95.22;100622.31;5092305;28;20369;-65
2022/11/14 04:57:54;;;;;;;35.60;21.93;;;;;;;6.23;95.58;100623.44;5092456;28;20194;-65
2022/11/14 05:00:21;;;;;;;39.53;22.87;;;;;;;6.14;96.20;100619.84;5091903;28;20274;-65
2022/11/14 05:02:47;;;;;;;38.27;22.53;;;;;;;6.20;96.65;100624.53;5092139;28;20187;-65
2022/11/14 05:05:14;;;;;;;41.03;23.20;;;;;;;6.23;97.81;100618.16;5091889;28;20248;-64
2022/11/14 05:07:41;;;;;;;38.73;23.03;;;;;;;6.28;97.17;100629.13;5092584;28;20276;-65
2022/11/14 05:10:09;;;;;;;41.70;23.90;;;;;;;6.33;96.28;100627.72;5091985;28;20346;-65
2022/11/14 05:12:37;;;;;;;40.27;22.13;;;;;;;6.40;95.67;100625.38;5092341;28;20602;-65
2022/11/14 05:15:04;;;;;;;44.20;24.43;;;;;;;6.47;95.72;100639.63;5091617;28;20224;-65
2022/11/14 05:17:31;;;;;;;45.17;23.43;;;;;;;6.54;94.73;100635.47;5092388;28;20631;-64
2022/11/14 05:19:57;;;;;;;47.60;26.87;;;;;;;6.56;94.32;100637.00;5091849;28;20253;-65
2022/11/14 05:22:24;;;;;;;61.17;26.87;;;;;;;6.59;94.30;100644.63;5092216;28;20193;-65
2022/11/14 05:24:51;;;;;;;54.70;26.20;;;;;;;6.64;94.30;100646.81;5091446;28;20195;-65
2022/11/14 05:27:17;;;;;;;62.73;25.93;;;;;;;6.68;94.16;100645.56;5091522;28;20244;-65
2022/11/14 05:29:45;;;;;;;67.63;30.57;;;;;;;6.70;93.61;100646.28;5083043;28;20649;-65
2022/11/14 05:32:12;;;;;;;91.73;35.23;;;;;;;6.72;93.79;100652.22;5071953;28;20192;-65
2022/11/14 05:34:39;;;;;;;57.23;29.60;;;;;;;6.76;94.36;100650.97;5075415;28;20241;-65
2022/11/14 05:37:05;;;;;;;85.97;36.67;;;;;;;6.79;93.61;100655.97;5075451;28;20192;-65
2022/11/14 05:39:32;;;;;;;101.93;39.67;;;;;;;6.82;94.02;100656.50;5077049;28;20198;-65
2022/11/14 05:41:59;;;;;;;119.77;45.20;;;;;;;6.91;93.72;100660.09;5095262;28;20730;-65
2022/11/14 05:44:25;;;;;;;137.00;57.77;;;;;;;6.94;93.50;100655.34;5095470;28;20191;-65
2022/11/14 05:46:53;;;;;;;118.87;51.03;;;;;;;6.99;94.32;100654.94;5095686;28;20187;-64
2022/11/14 05:49:20;;;;;;;114.17;50.47;;;;;;;7.08;94.22;100667.25;5095337;28;20278;-64
2022/11/14 05:51:47;;;;;;;107.53;49.67;;;;;;;7.17;94.30;100666.38;5090975;28;20188;-64
2022/11/14 05:54:13;;;;;;;105.53;47.60;;;;;;;7.28;93.76;100663.56;5075061;28;20242;-64
2022/11/14 05:56:40;;;;;;;96.53;45.17;;;;;;;7.43;93.78;100675.31;5074742;28;20196;-64
2022/11/14 05:59:07;;;;;;;122.93;44.27;;;;;;;7.58;93.07;100676.47;5075014;28;20265;-66
2022/11/14 06:01:33;;;;;;;94.77;43.70;;;;;;;7.78;93.44;100672.72;5074940;28;20196;-66
2022/11/14 06:04:01;;;;;;;98.10;43.97;;;;;;;8.03;92.84;100666.69;5074869;28;20195;-65
2022/11/14 06:06:28;;;;;;;109.33;54.87;;;;;;;8.20;92.10;100669.34;5075710;28;20253;-65
2022/11/14 06:08:55;;;;;;;82.00;44.47;;;;;;;8.50;92.68;100679.53;5074337;28;20194;-66
2022/11/14 06:11:21;;;;;;;53.33;30.70;;;;;;;8.65;90.38;100669.22;5074461;28;20261;-66
2022/11/14 06:13:48;;;;;;;50.57;26.30;;;;;;;8.80;90.52;100662.38;5086891;28;20196;-67
2022/11/14 06:16:17;;;;;;;55.33;23.83;;;;;;;9.03;89.28;100666.16;5095012;28;20195;-66
2022/11/14 06:18:45;;;;;;;21.60;16.90;;;;;;;9.63;98.96;100662.41;5094084;28;20183;-64
2022/11/14 06:21:15;;;;;;;29.40;19.40;;;;;;;10.67;100.00;100662.56;5073774;28;20195;-64
2022/11/14 06:23:42;;;;;;;27.33;20.83;;;;;;;10.98;82.92;100682.94;5073658;28;20229;-66
2022/11/14 06:26:18;;;;;;;31.23;23.83;;;;;;;10.86;80.69;100680.78;5074498;28;20249;-65
2022/11/14 06:28:45;;;;;;;84.20;43.03;;;;;;;10.96;79.41;100681.44;5075359;28;20187;-65
2022/11/14 06:31:12;;;;;;;28.93;19.23;;;;;;;11.06;77.75;100698.03;5074355;28;20227;-65
2022/11/14 06:33:38;;;;;;;22.63;15.73;;;;;;;11.02;77.13;100694.06;5056698;28;20196;-65
2022/11/14 06:36:07;;;;;;;22.60;17.57;;;;;;;10.81;77.19;100688.44;5073965;28;20192;-66
2022/11/14 06:38:37;;;;;;;63.80;34.10;;;;;;;10.66;77.92;100688.28;5074937;28;20192;-66
2022/11/14 06:41:05;;;;;;;46.97;28.80;;;;;;;10.62;80.58;100688.81;5074219;28;20233;-65
2022/11/14 06:43:35;;;;;;;31.93;18.80;;;;;;;10.41;78.60;100691.13;5073311;28;20192;-66
2022/11/14 06:46:02;;;;;;;24.00;18.50;;;;;;;10.16;81.59;100670.84;5083732;28;20262;-66
2022/11/14 06:48:29;;;;;;;23.33;16.53;;;;;;;10.45;79.43;100677.34;5084739;28;20184;-65
2022/11/14 06:50:57;;;;;;;25.03;17.43;;;;;;;10.69;80.13;100669.38;5082431;28;20253;-66
2022/11/14 06:53:24;;;;;;;34.50;17.50;;;;;;;10.94;77.24;100684.28;5085229;28;20187;-66
2022/11/14 06:55:57;;;;;;;23.17;16.33;;;;;;;11.12;77.15;100685.88;5082779;28;20618;-65
2022/11/14 06:58:26;;;;;;;19.10;15.73;;;;;;;11.39;76.00;100683.63;5083824;28;20184;-65
2022/11/14 07:00:53;;;;;;;15.83;14.33;;;;;;;11.52;73.93;100688.41;5084301;28;20282;-65
2022/11/14 07:03:19;;;;;;;25.60;14.83;;;;;;;11.75;74.37;100682.19;5086577;28;20278;-65
2022/11/14 07:05:47;;;;;;;18.53;13.57;;;;;;;11.93;71.87;100688.09;5081425;28;20185;-66
2022/11/14 07:08:14;;;;;;;30.00;14.93;;;;;;;11.90;72.17;100692.91;5079308;28;20192;-66
2022/11/14 07:10:41;;;;;;;32.20;14.03;;;;;;;12.21;72.51;100686.53;5083977;28;20270;-66
2022/11/14 07:13:10;;;;;;;14.93;12.60;;;;;;;12.46;70.56;100690.69;5086181;28;20189;-65
2022/11/14 07:15:37;;;;;;;14.43;12.93;;;;;;;12.67;69.60;100693.53;5090389;28;20208;-65
2022/11/14 07:18:03;;;;;;;13.10;11.73;;;;;;;12.85;69.23;100693.16;5093432;28;20781;-65
2022/11/14 07:20:30;;;;;;;14.13;12.60;;;;;;;12.80;68.08;100707.06;5093920;28;20246;-65
2022/11/14 07:22:57;;;;;;;18.77;16.77;;;;;;;12.59;68.02;100706.91;5094018;28;20192;-65
2022/11/14 07:25:23;;;;;;;34.03;14.90;;;;;;;12.54;71.30;100697.81;5093378;28;20235;-66
2022/11/14 07:27:50;;;;;;;14.73;13.23;;;;;;;12.52;69.55;100700.63;5094031;28;20193;-65
2022/11/14 07:30:18;;;;;;;14.23;12.73;;;;;;;12.41;69.73;100703.72;5080805;28;20218;-65
2022/11/14 07:32:45;;;;;;;16.27;13.77;;;;;;;12.42;70.11;100700.03;5073435;28;20189;-68
2022/11/14 07:35:12;;;;;;;29.40;17.97;;;;;;;12.57;71.61;100692.94;5072974;28;20198;-66
2022/11/14 07:37:38;;;;;;;18.80;14.60;;;;;;;12.79;69.67;100684.09;5086872;28;20221;-65
2022/11/14 07:40:06;;;;;;;20.60;14.07;;;;;;;13.14;69.19;100696.75;5092856;28;20771;-66
2022/11/14 07:42:32;;;;;;;14.67;12.67;;;;;;;13.49;67.94;100700.50;5092994;28;20195;-64
2022/11/14 07:44:59;;;;;;;17.53;13.70;;;;;;;13.65;67.55;100694.97;5093497;28;20194;-64
2022/11/14 07:47:28;;;;;;;27.80;14.27;;;;;;;13.91;66.12;100696.13;5093662;28;20190;-65
2022/11/14 07:49:54;;;;;;;17.80;14.07;;;;;;;14.28;66.13;100685.25;5093852;28;20344;-65
2022/11/14 07:52:21;;;;;;;17.07;13.30;;;;;;;14.53;64.85;100694.53;5092842;28;20221;-66
2022/11/14 07:54:48;;;;;;;24.03;13.77;;;;;;;14.65;64.18;100695.66;5091142;28;20253;-65
2022/11/14 07:57:14;;;;;;;15.67;12.20;;;;;;;14.86;64.11;100698.31;5084087;28;20199;-65
2022/11/14 07:59:41;;;;;;;15.83;13.23;;;;;;;15.12;62.96;100693.13;5081780;28;20188;-66
2022/11/14 08:02:12;;;;;;;20.40;13.20;;;;;;;15.18;62.97;100691.53;5082412;28;20184;-66
2022/11/14 08:04:40;;;;;;;19.90;13.23;;;;;;;15.23;63.02;100689.91;5083514;28;20215;-66
2022/11/14 08:07:07;;;;;;;16.53;14.80;;;;;;;15.46;63.06;100685.16;5082833;28;20196;-66
2022/11/14 08:09:34;;;;;;;22.53;13.77;;;;;;;15.70;61.70;100691.84;5077860;28;20192;-65
2022/11/14 08:12:00;;;;;;;27.83;15.37;;;;;;;15.90;60.70;100692.75;5091720;28;20252;-65
2022/11/14 08:14:27;;;;;;;23.80;14.23;;;;;;;16.16;60.79;100692.00;5097373;28;20249;-66
2022/11/14 08:16:54;;;;;;;17.63;12.70;;;;;;;16.19;59.61;100696.94;5082792;28;20299;-65
2022/11/14 08:19:20;;;;;;;16.80;13.20;;;;;;;15.49;63.61;100684.72;5083247;28;20184;-65
2022/11/14 08:21:48;;;;;;;19.60;13.37;;;;;;;15.32;62.76;100688.72;5083524;28;20192;-66
2022/11/14 08:24:15;;;;;;;26.97;17.97;;;;;;;14.61;66.35;100669.50;5083481;28;20269;-64
2022/11/14 08:26:42;;;;;;;18.77;15.17;;;;;;;14.65;64.81;100678.78;5072752;28;20234;-65
2022/11/14 08:29:08;;;;;;;26.60;15.60;;;;;;;14.95;65.42;100670.38;5074574;28;20183;-65
2022/11/14 08:31:35;;;;;;;19.73;14.43;;;;;;;15.37;64.44;100672.13;5091594;28;20276;-66
2022/11/14 08:34:02;;;;;;;16.37;13.17;;;;;;;15.66;63.57;100679.88;5091075;28;20253;-65
2022/11/14 08:36:28;;;;;;;24.03;14.00;;;;;;;16.05;61.85;100689.91;5092262;28;20212;-65
2022/11/14 08:38:56;;;;;;;19.90;12.60;;;;;;;16.39;60.97;100682.56;5092781;28;20252;-65
2022/11/14 08:41:23;;;;;;;21.93;12.03;;;;;;;16.56;59.57;100677.63;5091976;28;20740;-66
2022/11/14 08:43:50;;;;;;;12.83;10.83;;;;;;;16.70;58.69;100679.31;5092116;28;20206;-66
2022/11/14 08:46:17;;;;;;;14.30;11.07;;;;;;;16.86;58.02;100685.06;5091961;28;20674;-65
2022/11/14 08:48:43;;;;;;;32.53;11.67;;;;;;;16.98;58.00;100677.22;5092043;28;20233;-65
2022/11/14 08:51:10;;;;;;;18.93;11.57;;;;;;;17.13;56.73;100678.66;5091680;28;20230;-65
2022/11/14 08:53:37;;;;;;;13.40;11.50;;;;;;;17.28;55.46;100673.03;5091446;28;20257;-66
2022/11/14 08:56:05;;;;;;;13.70;12.40;;;;;;;17.36;55.26;100670.13;5092055;28;20639;-66
2022/11/14 08:58:32;;;;;;;15.70;11.60;;;;;;;17.49;55.51;100664.75;5091876;28;20246;-66
2022/11/14 09:01:03;;;;;;;16.80;13.03;;;;;;;17.31;55.43;100662.69;5091630;28;20657;-66
2022/11/14 09:03:30;;;;;;;14.17;11.23;;;;;;;17.27;56.53;100666.03;5092070;28;20199;-66
2022/11/14 09:05:56;;;;;;;19.53;12.87;;;;;;;17.04;56.85;100661.13;5080983;28;20217;-67
2022/11/14 09:08:23;;;;;;;31.27;13.07;;;;;;;17.08;55.90;100650.78;5075330;28;20209;-66
2022/11/14 09:10:50;;;;;;;18.50;13.33;;;;;;;17.05;56.04;100654.69;5075597;28;20739;-66
2022/11/14 09:13:18;;;;;;;15.23;11.97;;;;;;;17.18;56.25;100651.16;5088294;28;20553;-65
2022/11/14 09:15:45;;;;;;;16.07;12.63;;;;;;;17.27;56.69;100656.09;5096648;28;20200;-65
2022/11/14 09:18:12;;;;;;;18.67;13.67;;;;;;;17.38;55.59;100644.69;5093412;28;20230;-65
2022/11/14 09:20:39;;;;;;;17.77;14.73;;;;;;;17.22;55.87;100641.63;5093161;28;20201;-65
2022/11/14 09:23:05;;;;;;;14.60;12.83;;;;;;;17.27;55.43;100639.97;5095702;28;20252;-66
2022/11/14 09:25:32;;;;;;;13.93;12.57;;;;;;;17.39;55.66;100637.47;5093808;28;20197;-66
2022/11/14 09:28:05;;;;;;;24.13;12.83;;;;;;;17.43;55.88;100630.69;5095908;28;20726;-66
2022/11/14 09:30:34;;;;;;;14.10;12.47;;;;;;;16.89;56.99;100622.94;5081327;28;20207;-66
2022/11/14 09:33:01;;;;;;;15.77;13.53;;;;;;;16.30;59.17;100618.59;5075356;28;20663;-65
2022/11/14 09:35:28;;;;;;;13.73;12.17;;;;;;;16.40;59.81;100609.13;5075748;28;20226;-65
2022/11/14 09:38:02;;;;;;;13.10;12.03;;;;;;;16.65;58.88;100612.03;5075164;28;20224;-65
2022/11/14 09:40:29;;;;;;;28.57;12.83;;;;;;;16.70;58.11;100610.34;5075540;28;20269;-66
2022/11/14 09:43:13;;;;;;;16.93;12.63;;;;;;;16.79;57.98;100608.28;5075078;28;20615;-66
2022/11/14 09:45:48;;;;;;;14.03;12.80;;;;;;;16.62;57.00;100597.16;5091624;28;20238;-66
2022/11/14 09:48:18;;;;;;;13.60;12.23;;;;;;;16.85;55.17;100591.34;5095302;28;20194;-66
2022/11/14 09:50:48;;;;;;;20.77;13.30;;;;;;;17.12;55.06;100593.78;5093753;28;20300;-66
2022/11/14 09:53:23;;;;;;;19.47;14.17;;;;;;;17.40;55.08;100593.44;5085416;28;20197;-66
2022/11/14 09:55:50;;;;;;;16.43;13.53;;;;;;;17.64;53.82;100592.75;5095515;28;20191;-66
2022/11/14 09:58:20;;;;;;;23.13;13.27;;;;;;;17.75;52.96;100589.38;5085229;28;20193;-67
2022/11/14 10:00:54;;;;;;;14.10;12.73;;;;;;;17.64;54.03;100588.19;5077746;28;20188;-67
2022/11/14 10:03:33;;;;;;;18.60;14.00;;;;;;;17.81;53.21;100583.16;5074759;28;20650;-67
2022/11/14 10:06:27;;;;;;;16.67;14.10;;;;;;;17.98;52.63;100581.59;5083530;28;20235;-67
2022/11/14 10:09:23;;;;;;;14.33;12.83;;;;;;;18.00;52.00;100574.09;5075044;28;20244;-65
2022/11/14 10:11:55;;;;;;;20.33;14.83;;;;;;;17.97;52.44;100555.75;5076576;28;20216;-66
2022/11/14 10:14:51;;;;;;;17.53;13.33;;;;;;;18.00;52.60;100556.13;5094475;28;20194;-66
2022/11/14 10:17:35;;;;;;;20.77;14.53;;;;;;;18.01;52.75;100554.25;5095422;28;20280;-66
2022/11/14 10:20:13;;;;;;;17.37;15.13;;;;;;;17.96;53.82;100543.31;5094840;28;20651;-66
2022/11/14 10:22:56;;;;;;;17.30;14.20;;;;;;;17.91;53.79;100546.69;5094640;28;20239;-65
2022/11/14 10:25:26;;;;;;;21.47;14.87;;;;;;;17.72;54.12;100522.63;5094229;28;20651;-65
2022/11/14 10:28:09;;;;;;;20.23;15.87;;;;;;;17.81;54.42;100535.56;5094851;28;20633;-65
2022/11/14 10:30:40;;;;;;;16.57;14.87;;;;;;;17.97;54.25;100526.97;5094883;28;20211;-65
2022/11/14 10:33:23;;;;;;;20.67;17.07;;;;;;;18.09;54.59;100527.09;5094415;28;20274;-65
2022/11/14 10:35:57;;;;;;;24.40;17.60;;;;;;;17.63;56.07;100515.84;5076846;28;20245;-66
2022/11/14 10:38:31;;;;;;;21.93;17.77;;;;;;;17.88;55.89;100508.66;5074554;28;20207;-66
2022/11/14 10:41:01;;;;;;;21.23;16.73;;;;;;;17.89;55.75;100516.47;5074915;28;20191;-66
2022/11/14 10:43:33;;;;;;;24.33;18.50;;;;;;;17.43;57.10;100509.78;5074673;28;20620;-66
2022/11/14 10:46:05;;;;;;;19.03;16.97;;;;;;;17.27;57.73;100499.53;5092836;28;20239;-66
2022/11/14 10:48:36;;;;;;;20.87;17.73;;;;;;;17.29;57.81;100497.44;5094206;28;20677;-66
2022/11/14 10:51:08;;;;;;;22.50;16.67;;;;;;;17.01;58.79;100505.00;5094929;28;20218;-66
2022/11/14 10:53:51;;;;;;;23.40;17.47;;;;;;;17.01;58.94;100496.94;5074633;28;20721;-65
2022/11/14 10:56:18;;;;;;;26.83;18.00;;;;;;;16.83;59.53;100492.28;5073900;28;20234;-65
2022/11/14 10:58:45;;;;;;;21.23;16.40;;;;;;;16.98;60.04;100486.66;5074058;28;20249;-66
2022/11/14 11:01:35;;;;;;;18.63;16.73;;;;;;;17.08;59.19;100492.38;5074237;28;20256;-66
2022/11/14 11:04:22;;;;;;;23.13;17.17;;;;;;;17.18;58.97;100481.97;5074145;28;20196;-65
2022/11/14 11:06:50;;;;;;;25.17;17.73;;;;;;;17.28;59.21;100485.03;5074217;28;20184;-65
2022/11/14 11:12:05;;;;;;;24.03;18.00;;;;;;;17.28;59.60;100474.31;5077112;28;20212;-64
2022/11/14 11:14:34;;;;;;;24.27;19.53;;;;;;;17.36;59.40;100471.38;5093325;28;20199;-65
2022/11/14 11:17:23;;;;;;;24.13;18.00;;;;;;;17.19;59.06;100459.47;5094184;28;20223;-65
2022/11/14 11:19:51;;;;;;;22.77;17.43;;;;;;;16.73;60.53;100448.94;5094345;28;20186;-64
2022/11/14 11:22:28;;;;;;;19.93;17.70;;;;;;;16.92;60.68;100441.84;5093786;28;20199;-65